Wokal Field Glasgow International Airport
KGGW : now visible

Airfield :











YOU CAN JOIN US ON...

 
LOGIN :

Register | Disclaimer

   EN    FR    IT 

 









Legend :    VFR   Marginal VFR   IFR   Intensive IFR   Very Intensive IFR
Visi :
Ceiling :
>= 8 km
>= 3000ft
5 to 8 km
1000 to 3000 ft
1500m to 5 km
500 to 1000 ft
800 to 1500m
200 to 500 ft
< 800m
< 200 ft
Symbols :   Thunderstorms  Fog  Heavy snow  Heavy precipitations  Wind > 20 kt






- Airport Elevation : 2296 ft
- IATA code : GGW


KGGW - Wokal Field Glasgow International

CURRENT METAR :
  • 280353Z AUTO 26006KT 10SM CLR 02/M06 A2988 RMK AO2 SLP144 T00171056

EXPIRED METARs :
  • 280253Z AUTO 27008KT 10SM CLR 03/M05 A2988 RMK AO2 SLP144 T00281050 56006
  • 280153Z AUTO 18004KT 10SM CLR 01/M04 A2989 RMK AO2 SLP147 T00111044

TAF KGGW
Valid from the 28 at 00:00 until the 29 at 00:00 UTC


272327Z 2800/2824 27008KT P6SM FEW100 WS020/29045KT
FM281900 29018KT P6SM BKN150 WS020/29050KT
FM282200 31019G28KT P6SM SCT120
KZLC FIR / North America



MET'MAP, your aeronautical weather chart ! - Copyright ORBIFLY December 2007 - Disclaimer

ORBIFLY MET'MAP TEAM :

Programming & Development : Alexandra Zaïnal
Concept & original design : Baudouin d'Aumeries
Assistance for programming : Marc-Olivier Méhu
Technical & hardware support : Manuel Goepfert

Contact : metmap@orbifly.com




SOURCES & CREDITS :

   NOAA       Earth
Advisory